UKV5035 LIRA-OLBA
Flight info
| Callsign | UKV5035 |
|---|---|
| Flight time | N/A |
| Altitude | 35000 |
| Route | RATI5W SIP6U SIPRO DCT NOSTO DCT KRK DCT XORKI DCT MKN DCT USINI UL995 RDS UM601 LAKAD DCT LUBES DCT KUKLA |
| Aircraft | A21N/M-SDE2E3FGHIRWXY/LB1 |
Departure
| Time | 2026-05-08 14:58 |
|---|---|
| Airport | Ciampino–G. B. Pastine International Airport (LIRA) |
Arrival
| Time | N/A |
|---|---|
| Airport | Beirut Rafic Hariri International Airport (OLBA) |
| Time | Latitude | Longitude | Altitude | Speed | Heading |
|---|---|---|---|---|---|
| 2026-05-08 14:15 | 41.79665 | 12.59132 | 411 ft | 0 kts | 322° |
| 2026-05-08 14:49 | 41.79659 | 12.59138 | 411 ft | 4 kts | 321° |
| 2026-05-08 14:49 | 41.79638 | 12.59161 | 410 ft | 4 kts | 321° |
| 2026-05-08 14:49 | 41.79617 | 12.59183 | 406 ft | 4 kts | 322° |
| 2026-05-08 14:49 | 41.79613 | 12.59188 | 406 ft | 3 kts | 322° |
| 2026-05-08 14:51 | 41.79613 | 12.59187 | 406 ft | 1 kts | 322° |
| 2026-05-08 14:52 | 41.79627 | 12.59186 | 403 ft | 4 kts | 16° |
| 2026-05-08 14:52 | 41.79701 | 12.59290 | 411 ft | 10 kts | 23° |
| 2026-05-08 14:52 | 41.79746 | 12.59299 | 411 ft | 0 kts | 7° |
| 2026-05-08 14:53 | 41.79752 | 12.59300 | 411 ft | 2 kts | 7° |
| 2026-05-08 14:53 | 41.79770 | 12.59303 | 411 ft | 3 kts | 15° |
| 2026-05-08 14:53 | 41.79793 | 12.59321 | 411 ft | 5 kts | 42° |
| 2026-05-08 14:53 | 41.79825 | 12.59347 | 412 ft | 6 kts | 8° |
| 2026-05-08 14:54 | 41.79874 | 12.59331 | 409 ft | 8 kts | 339° |
| 2026-05-08 14:54 | 41.79928 | 12.59288 | 412 ft | 10 kts | 335° |
| 2026-05-08 14:54 | 41.79994 | 12.59245 | 412 ft | 11 kts | 332° |
| 2026-05-08 14:54 | 41.80068 | 12.59193 | 412 ft | 13 kts | 332° |
| 2026-05-08 14:55 | 41.80149 | 12.59135 | 412 ft | 14 kts | 332° |
| 2026-05-08 14:55 | 41.80234 | 12.59075 | 412 ft | 15 kts | 332° |
| 2026-05-08 14:55 | 41.80334 | 12.59006 | 412 ft | 16 kts | 332° |
| 2026-05-08 14:55 | 41.80436 | 12.58936 | 412 ft | 17 kts | 333° |
| 2026-05-08 14:56 | 41.80545 | 12.58861 | 412 ft | 18 kts | 332° |
| 2026-05-08 14:56 | 41.80657 | 12.58783 | 411 ft | 7 kts | 332° |
| 2026-05-08 14:56 | 41.80689 | 12.58761 | 412 ft | 6 kts | 338° |
| 2026-05-08 14:56 | 41.80732 | 12.58778 | 412 ft | 8 kts | 46° |
| 2026-05-08 14:57 | 41.80766 | 12.58860 | 418 ft | 10 kts | 63° |
| 2026-05-08 14:57 | 41.80748 | 12.58922 | 414 ft | 8 kts | 146° |
| 2026-05-08 14:57 | 41.80585 | 12.59038 | 419 ft | 64 kts | 152° |
| 2026-05-08 14:57 | 41.79925 | 12.59492 | 424 ft | 146 kts | 153° |
| 2026-05-08 14:58 | 41.78949 | 12.60151 | 897 ft | 166 kts | 154° |
| 2026-05-08 14:58 | 41.77844 | 12.60638 | 1578 ft | 182 kts | 179° |
| 2026-05-08 14:58 | 41.76635 | 12.60047 | 2009 ft | 196 kts | 223° |
| 2026-05-08 14:58 | 41.75769 | 12.58555 | 2416 ft | 215 kts | 244° |
| 2026-05-08 14:59 | 41.75051 | 12.56704 | 2783 ft | 239 kts | 234° |
| 2026-05-08 14:59 | 41.72791 | 12.53411 | 4127 ft | 252 kts | 249° |
| 2026-05-08 14:59 | 41.71954 | 12.51275 | 4647 ft | 269 kts | 228° |
| 2026-05-08 15:00 | 41.70394 | 12.49922 | 5304 ft | 277 kts | 196° |
| 2026-05-08 15:00 | 41.68454 | 12.49842 | 6089 ft | 279 kts | 163° |
| 2026-05-08 15:00 | 41.67860 | 12.50109 | 6349 ft | 278 kts | 154° |
| 2026-05-08 15:01 | 41.67457 | 12.50384 | 6511 ft | 278 kts | 147° |
| 2026-05-08 15:01 | 41.67286 | 12.50526 | 6589 ft | 277 kts | 144° |
| 2026-05-08 15:01 | 41.66213 | 12.51916 | 7181 ft | 277 kts | 121° |
| 2026-05-08 15:02 | 41.65685 | 12.54235 | 7810 ft | 279 kts | 88° |
| 2026-05-08 15:02 | 41.65746 | 12.55074 | 8026 ft | 280 kts | 76° |
| 2026-05-08 15:02 | 41.66099 | 12.56346 | 8383 ft | 282 kts | 58° |
| 2026-05-08 15:02 | 41.67480 | 12.58100 | 9071 ft | 286 kts | 25° |
| 2026-05-08 15:03 | 41.69356 | 12.58548 | 9766 ft | 290 kts | 352° |
| 2026-05-08 15:03 | 41.71214 | 12.57509 | 10428 ft | 296 kts | 326° |
| 2026-05-08 15:03 | 41.73128 | 12.56313 | 10771 ft | 313 kts | 347° |
| 2026-05-08 15:03 | 41.75356 | 12.55956 | 11056 ft | 332 kts | 2° |
| 2026-05-08 15:04 | 41.77632 | 12.56631 | 11309 ft | 350 kts | 24° |
| 2026-05-08 15:04 | 41.79699 | 12.58484 | 11559 ft | 368 kts | 44° |
| 2026-05-08 15:04 | 41.81258 | 12.61280 | 11797 ft | 383 kts | 63° |
| 2026-05-08 15:04 | 41.82110 | 12.64723 | 12017 ft | 397 kts | 81° |
| 2026-05-08 15:05 | 41.82128 | 12.68459 | 12294 ft | 406 kts | 99° |
| 2026-05-08 15:05 | 41.81278 | 12.72071 | 12737 ft | 409 kts | 117° |
| 2026-05-08 15:05 | 41.79674 | 12.75154 | 13266 ft | 410 kts | 134° |
| 2026-05-08 15:06 | 41.77934 | 12.77355 | 13771 ft | 412 kts | 140° |
| 2026-05-08 15:06 | 41.75929 | 12.80111 | 14167 ft | 420 kts | 128° |
| 2026-05-08 15:06 | 41.74905 | 12.82308 | 14416 ft | 424 kts | 119° |